Kezdőlap
METAR-TAF:

METAR-TAF

Repülőterek :

Östersund-Frösön, Svédország

földrajzi szélesség: 63-11N, földrajzi hosszúság: 014-30E, magasság: 376 m

Jelenlegi meteorológiai megfigyelések

A jelentés 22 perccel ezelõtt készült, 20:20 UTC
Nyugat-északnyugati szél 9 kt
Hőmérséklet 13°C
Páratartalom 88%
Légköri nyomás 1017 hPa
Látótávolság 10 km, vagy több

METAR: ESNZ 192020Z AUTO 29009KT 9999 FEW024/// 13/11 Q1017

Idő: 22:42 (20:42 UTC)

Előrejelzés

A jelentés 3 órával és 12 perccel ezelõtt készült, 17:30 UTC
Az előrejelzés 19-én 18 óra UTC és 19-én 21 óra UTC között érvényes
Nyugat-északnyugati szél 15 kt
Látótávolság 10 km, vagy több
Kevés felhő 2500 lábon

TAF: ESNZ 191730Z 1918/1921 29015KT 9999 FEW025

Meteorológiai megfigyelések és előrejelzések több, mint 4000 repülőtéren (METAR és TAF jelentéseket).

A térképen piros és sárga pontok jelzik az elérhető meteorológiai állomásokat.

Mozgassa az egeret a pont fölött, hogy megjelenjen az állomás neve.

Azután kattintson az időjárási megfigyelések és előrejelzések megtekintéséhez.

A térkép megváltoztatása: kattintson a fekete keresztel jelölt zöld gombra ráközelítéshez, a vonallal jelölt zöld gombra távolításhoz, vagy a zöld nyilakra a szomszédos térképek eléréséhez.


METAR-TAF: